createdAt,value
2022-11-03T00:00:50.067Z,10.88
2022-11-03T00:01:50.212Z,10.85
2022-11-03T00:02:50.329Z,10.84
2022-11-03T00:03:50.070Z,10.84
2022-11-03T00:04:50.045Z,10.84
2022-11-03T00:05:50.035Z,10.84
2022-11-03T00:06:50.027Z,10.82
2022-11-03T00:07:49.989Z,10.82
2022-11-03T00:08:49.990Z,10.82
2022-11-03T00:09:49.979Z,10.81
2022-11-03T00:10:49.983Z,10.82
2022-11-03T00:11:49.949Z,10.79
2022-11-03T00:12:49.919Z,10.81
2022-11-03T00:13:49.938Z,10.81
2022-11-03T00:14:49.931Z,10.84
2022-11-03T00:15:49.894Z,10.82
2022-11-03T00:16:49.921Z,10.82
2022-11-03T00:17:49.916Z,10.84
2022-11-03T00:18:49.892Z,10.85
2022-11-03T00:19:49.899Z,10.86
2022-11-03T00:20:49.869Z,10.89
2022-11-03T00:21:49.862Z,10.92
2022-11-03T00:22:49.861Z,10.92
2022-11-03T00:23:49.838Z,10.89
2022-11-03T00:24:49.848Z,10.91
2022-11-03T00:25:49.809Z,10.91
2022-11-03T00:26:49.800Z,10.91
2022-11-03T00:27:49.851Z,10.89
2022-11-03T00:28:49.790Z,10.91
2022-11-03T00:29:49.798Z,10.96
2022-11-03T00:30:49.754Z,10.97
2022-11-03T00:31:49.766Z,10.99
2022-11-03T00:32:49.751Z,11.00
2022-11-03T00:33:49.779Z,11.02
2022-11-03T00:34:49.830Z,11.02
2022-11-03T00:35:49.720Z,11.03
2022-11-03T00:36:49.686Z,11.09
2022-11-03T00:37:49.692Z,11.09
2022-11-03T00:38:49.719Z,11.10
2022-11-03T00:39:49.670Z,11.10
2022-11-03T00:40:49.636Z,11.10
2022-11-03T00:41:49.658Z,11.09
2022-11-03T00:42:49.617Z,11.07
2022-11-03T00:43:49.633Z,11.04
2022-11-03T00:44:49.591Z,11.04
2022-11-03T00:45:49.636Z,11.06
2022-11-03T00:46:49.607Z,11.09
2022-11-03T00:47:49.601Z,11.09
2022-11-03T00:48:49.786Z,11.10
2022-11-03T00:49:49.542Z,11.09
2022-11-03T00:50:49.748Z,11.10
2022-11-03T00:51:49.558Z,11.11
2022-11-03T00:52:49.531Z,11.11
2022-11-03T00:53:49.507Z,11.10
2022-11-03T00:54:54.328Z,11.07
2022-11-03T00:55:50.490Z,11.06
2022-11-03T00:56:49.484Z,11.07
2022-11-03T00:57:49.530Z,11.07
2022-11-03T00:58:49.460Z,11.09
2022-11-03T00:59:49.441Z,11.09
2022-11-03T01:00:49.475Z,11.10
2022-11-03T01:01:49.499Z,11.11
2022-11-03T01:02:49.418Z,11.14
2022-11-03T01:03:49.427Z,11.14
2022-11-03T01:04:49.383Z,11.11
2022-11-03T01:05:49.368Z,11.09
2022-11-03T01:06:49.389Z,11.07
2022-11-03T01:07:49.385Z,11.04
2022-11-03T01:08:49.356Z,11.04
2022-11-03T01:09:49.358Z,11.03
2022-11-03T01:10:49.330Z,11.00
2022-11-03T01:11:49.315Z,11.02
2022-11-03T01:12:49.311Z,11.03
2022-11-03T01:13:49.294Z,11.04
2022-11-03T01:14:49.315Z,11.07
2022-11-03T01:15:49.295Z,11.11
2022-11-03T01:16:49.261Z,11.14
2022-11-03T01:17:49.266Z,11.17
2022-11-03T01:18:49.228Z,11.15
2022-11-03T01:19:49.268Z,11.15
2022-11-03T01:20:49.220Z,11.15
2022-11-03T01:21:49.191Z,11.15
2022-11-03T01:22:49.196Z,11.14
2022-11-03T01:23:49.179Z,11.14
2022-11-03T01:24:49.189Z,11.14
2022-11-03T01:25:49.166Z,11.11
2022-11-03T01:26:49.172Z,11.15
2022-11-03T01:27:49.153Z,11.18
2022-11-03T01:28:49.139Z,11.19
2022-11-03T01:29:49.135Z,11.21
2022-11-03T01:30:49.217Z,11.21
2022-11-03T01:31:49.120Z,11.21
2022-11-03T01:32:49.117Z,11.22
2022-11-03T01:33:49.078Z,11.21
2022-11-03T01:34:49.150Z,11.21
2022-11-03T01:35:49.081Z,11.18
2022-11-03T01:36:49.052Z,11.18
2022-11-03T01:37:49.038Z,11.15
2022-11-03T01:38:49.081Z,11.14
2022-11-03T01:39:49.052Z,11.10
2022-11-03T01:40:48.999Z,11.10
2022-11-03T01:41:49.004Z,11.06
2022-11-03T01:42:48.999Z,11.04
2022-11-03T01:43:48.980Z,11.03
2022-11-03T01:44:48.985Z,11.00
2022-11-03T01:45:48.968Z,10.99
2022-11-03T01:46:48.933Z,10.97
2022-11-03T01:47:48.996Z,10.97
2022-11-03T01:48:48.914Z,11.00
2022-11-03T01:49:48.916Z,10.99
2022-11-03T01:50:48.953Z,10.99
2022-11-03T01:51:48.929Z,11.00
2022-11-03T01:52:48.940Z,10.99
2022-11-03T01:53:48.865Z,10.97
2022-11-03T01:54:48.866Z,10.91
2022-11-03T01:55:48.868Z,10.89
2022-11-03T01:56:48.849Z,10.88
2022-11-03T01:57:48.860Z,10.85
2022-11-03T01:58:48.804Z,10.84
2022-11-03T01:59:48.818Z,10.79
2022-11-03T02:00:48.869Z,10.78
2022-11-03T02:01:49.033Z,10.73
2022-11-03T02:02:48.777Z,10.71
2022-11-03T02:03:48.757Z,10.71
2022-11-03T02:04:48.758Z,10.70
2022-11-03T02:05:48.744Z,10.67
2022-11-03T02:10:26.770Z,10.53
2022-11-03T02:11:07.186Z,10.52
2022-11-03T02:12:05.737Z,10.53
2022-11-03T02:13:07.114Z,10.52
2022-11-03T02:14:06.803Z,10.48
2022-11-03T02:15:05.745Z,10.47
2022-11-03T02:16:05.671Z,10.41
2022-11-03T02:17:05.647Z,10.40
2022-11-03T02:18:05.648Z,10.34
2022-11-03T02:19:05.648Z,10.32
2022-11-03T02:20:05.620Z,10.33
2022-11-03T02:21:05.817Z,10.34
2022-11-03T02:22:05.585Z,10.36
2022-11-03T02:23:06.065Z,10.36
2022-11-03T02:24:05.588Z,10.32
2022-11-03T02:25:05.560Z,10.34
2022-11-03T02:26:05.556Z,10.34
2022-11-03T02:27:05.539Z,10.36
2022-11-03T02:28:05.539Z,10.34
2022-11-03T02:29:05.509Z,10.33
2022-11-03T02:30:06.317Z,10.33
2022-11-03T02:31:05.532Z,10.30
2022-11-03T02:32:05.528Z,10.30
2022-11-03T02:33:05.915Z,10.32
2022-11-03T02:34:05.485Z,10.30
2022-11-03T02:35:05.458Z,10.36
2022-11-03T02:36:05.478Z,10.38
2022-11-03T02:37:05.439Z,10.38
2022-11-03T02:38:05.450Z,10.38
2022-11-03T02:39:05.408Z,10.41
2022-11-03T02:40:06.304Z,10.40
2022-11-03T02:41:05.368Z,10.41
2022-11-03T02:42:05.405Z,10.42
2022-11-03T02:43:05.732Z,10.40
2022-11-03T02:44:05.419Z,10.41
2022-11-03T02:45:05.368Z,10.40
2022-11-03T02:46:05.338Z,10.41
2022-11-03T02:47:05.328Z,10.45
2022-11-03T02:48:05.356Z,10.45
2022-11-03T02:49:05.332Z,10.44
2022-11-03T02:50:05.278Z,10.44
2022-11-03T02:51:05.270Z,10.45
2022-11-03T02:52:05.583Z,10.47
2022-11-03T02:53:05.626Z,10.44
2022-11-03T02:54:05.279Z,10.42
2022-11-03T02:55:05.250Z,10.42
2022-11-03T02:56:05.275Z,10.41
2022-11-03T02:57:05.222Z,10.41
2022-11-03T02:58:05.202Z,10.41
2022-11-03T02:59:05.174Z,10.41
2022-11-03T03:00:05.180Z,10.41
2022-11-03T03:01:05.200Z,10.42
2022-11-03T03:02:05.316Z,10.40
2022-11-03T03:03:05.448Z,10.36
2022-11-03T03:04:05.154Z,10.34
2022-11-03T03:05:05.114Z,10.34
2022-11-03T03:06:05.126Z,10.36
2022-11-03T03:07:05.116Z,10.42
2022-11-03T03:08:05.108Z,10.41
2022-11-03T03:09:05.101Z,10.42
2022-11-03T03:10:05.076Z,10.42
2022-11-03T03:11:05.046Z,10.47
2022-11-03T03:12:05.047Z,10.47
2022-11-03T03:13:05.379Z,10.47
2022-11-03T03:14:05.040Z,10.47
2022-11-03T03:15:05.032Z,10.48
2022-11-03T03:16:05.088Z,10.48
2022-11-03T03:17:04.988Z,10.48
2022-11-03T03:18:04.979Z,10.47
2022-11-03T03:19:04.985Z,10.48
2022-11-03T03:20:04.946Z,10.47
2022-11-03T03:21:04.967Z,10.47
2022-11-03T03:22:04.964Z,10.47
2022-11-03T03:23:08.949Z,10.48
2022-11-03T03:24:05.918Z,10.48
2022-11-03T03:25:04.941Z,10.51
2022-11-03T03:26:04.897Z,10.52
2022-11-03T03:27:04.904Z,10.59
2022-11-03T03:28:04.909Z,10.59
2022-11-03T03:29:04.860Z,10.60
2022-11-03T03:30:04.854Z,10.61
2022-11-03T03:31:04.909Z,10.64
2022-11-03T03:32:04.880Z,10.64
2022-11-03T03:33:05.122Z,10.67
2022-11-03T03:34:16.626Z,10.68
2022-11-03T03:35:05.796Z,10.71
2022-11-03T03:36:04.804Z,10.73
2022-11-03T03:37:04.800Z,10.73
2022-11-03T03:38:05.071Z,10.71
2022-11-03T03:39:04.777Z,10.71
2022-11-03T03:40:05.706Z,10.76
2022-11-03T03:41:10.406Z,10.74
2022-11-03T03:42:05.730Z,10.78
2022-11-03T03:43:04.709Z,10.78
2022-11-03T03:44:04.748Z,10.78
2022-11-03T03:45:05.743Z,10.79
2022-11-03T03:46:04.715Z,10.85
2022-11-03T03:47:04.666Z,10.86
2022-11-03T03:48:04.767Z,10.89
2022-11-03T03:49:04.693Z,10.89
2022-11-03T03:50:04.644Z,10.91
2022-11-03T03:51:04.657Z,10.94
2022-11-03T03:52:04.601Z,10.97
2022-11-03T03:53:04.599Z,10.99
2022-11-03T03:54:05.384Z,11.02
2022-11-03T03:55:04.575Z,11.04
2022-11-03T03:56:04.641Z,11.06
2022-11-03T03:57:04.569Z,11.06
2022-11-03T03:58:04.846Z,11.04
2022-11-03T03:59:04.539Z,11.06
2022-11-03T04:00:05.330Z,11.09
2022-11-03T04:01:04.593Z,11.09
2022-11-03T04:02:04.632Z,11.09
2022-11-03T04:03:04.498Z,11.10
2022-11-03T04:04:04.550Z,11.17
2022-11-03T04:05:04.505Z,11.18
2022-11-03T04:06:04.473Z,11.19
2022-11-03T04:07:04.447Z,11.18
2022-11-03T04:08:04.697Z,11.19
2022-11-03T04:09:04.476Z,11.24
2022-11-03T04:10:04.425Z,11.24
2022-11-03T04:11:04.629Z,11.22
2022-11-03T04:12:04.399Z,11.22
2022-11-03T04:13:04.410Z,11.22
2022-11-03T04:14:04.436Z,11.22
2022-11-03T04:15:04.367Z,11.21
2022-11-03T04:16:04.418Z,11.22
2022-11-03T04:17:04.344Z,11.21
2022-11-03T04:18:04.709Z,11.22
2022-11-03T04:19:04.367Z,11.24
2022-11-03T04:20:04.297Z,11.27
2022-11-03T04:21:04.325Z,11.25
2022-11-03T04:22:04.396Z,11.22
2022-11-03T04:23:04.307Z,11.21
2022-11-03T04:24:04.316Z,11.21
2022-11-03T04:25:04.308Z,11.18
2022-11-03T04:26:04.235Z,11.17
2022-11-03T04:27:04.248Z,11.15
2022-11-03T04:28:04.568Z,11.15
2022-11-03T04:29:04.207Z,11.15
2022-11-03T04:30:04.258Z,11.15
2022-11-03T04:31:04.191Z,11.18
2022-11-03T04:32:04.207Z,11.18
2022-11-03T04:33:04.161Z,11.18
2022-11-03T04:34:04.168Z,11.15
2022-11-03T04:35:04.145Z,11.14
2022-11-03T04:36:04.161Z,11.14
2022-11-03T04:37:04.161Z,11.14
2022-11-03T04:38:04.523Z,11.11
2022-11-03T04:39:04.099Z,11.10
2022-11-03T04:40:04.089Z,11.09
2022-11-03T04:41:04.056Z,11.10
2022-11-03T04:42:04.142Z,11.09
2022-11-03T04:43:04.393Z,11.10
2022-11-03T04:44:04.049Z,11.10
2022-11-03T04:45:04.040Z,11.07
2022-11-03T04:46:04.036Z,11.04
2022-11-03T04:47:04.017Z,11.06
2022-11-03T04:48:04.049Z,11.07
2022-11-03T04:49:03.986Z,11.07
2022-11-03T04:50:03.982Z,11.07
2022-11-03T04:51:03.997Z,11.06
2022-11-03T04:52:03.965Z,11.07
2022-11-03T04:53:04.216Z,11.11
2022-11-03T04:54:03.976Z,11.11
2022-11-03T04:55:03.962Z,11.15
2022-11-03T04:56:07.415Z,11.17
2022-11-03T04:57:03.893Z,11.17
2022-11-03T04:58:03.914Z,11.18
2022-11-03T04:59:03.911Z,11.19
2022-11-03T05:00:03.872Z,11.22
2022-11-03T05:01:03.952Z,11.22
2022-11-03T05:02:04.022Z,11.22
2022-11-03T05:03:03.855Z,11.22
2022-11-03T05:04:03.851Z,11.21
2022-11-03T05:05:03.808Z,11.24
2022-11-03T05:06:05.275Z,11.25
2022-11-03T05:07:03.839Z,11.27
2022-11-03T05:08:03.792Z,11.27
2022-11-03T05:09:03.768Z,11.27
2022-11-03T05:10:03.748Z,11.28
2022-11-03T05:11:04.653Z,11.32
2022-11-03T05:12:05.226Z,11.36
2022-11-03T05:13:03.977Z,11.35
2022-11-03T05:14:03.708Z,11.33
2022-11-03T05:15:03.718Z,11.32
2022-11-03T05:16:03.685Z,11.28
2022-11-03T05:17:03.705Z,11.27
2022-11-03T05:18:03.657Z,11.25
2022-11-03T05:19:03.652Z,11.25
2022-11-03T05:20:03.657Z,11.28
2022-11-03T05:21:03.647Z,11.32
2022-11-03T05:22:03.611Z,11.33
2022-11-03T05:23:04.159Z,11.33
2022-11-03T05:24:03.774Z,11.29
2022-11-03T05:25:03.610Z,11.32
2022-11-03T05:26:03.610Z,11.29
2022-11-03T05:27:03.613Z,11.28
2022-11-03T05:28:03.650Z,11.27
2022-11-03T05:29:03.558Z,11.25
2022-11-03T05:30:03.542Z,11.25
2022-11-03T05:31:03.531Z,11.25
2022-11-03T05:32:03.513Z,11.27
2022-11-03T05:33:03.689Z,11.29
2022-11-03T05:34:04.492Z,11.29
2022-11-03T05:35:03.496Z,11.29
2022-11-03T05:36:03.469Z,11.28
2022-11-03T05:37:03.508Z,11.27
2022-11-03T05:38:03.613Z,11.24
2022-11-03T05:39:04.524Z,11.24
2022-11-03T05:40:03.470Z,11.25
2022-11-03T05:41:04.334Z,11.24
2022-11-03T05:42:03.579Z,11.27
2022-11-03T05:43:06.246Z,11.28
2022-11-03T05:44:05.578Z,11.28
2022-11-03T05:45:03.387Z,11.27
2022-11-03T05:46:03.439Z,11.29
2022-11-03T05:47:05.954Z,11.28
2022-11-03T05:48:04.725Z,11.28
2022-11-03T05:49:03.518Z,11.27
2022-11-03T05:50:03.528Z,11.28
2022-11-03T05:51:03.324Z,11.27
2022-11-03T05:52:03.310Z,11.28
2022-11-03T05:53:03.434Z,11.28
2022-11-03T05:54:03.296Z,11.29
2022-11-03T05:55:03.275Z,11.28
2022-11-03T05:56:03.242Z,11.24
2022-11-03T05:57:03.238Z,11.22
2022-11-03T05:58:03.582Z,11.22
2022-11-03T05:59:03.230Z,11.19
2022-11-03T06:00:03.687Z,11.21
2022-11-03T06:01:03.200Z,11.21
2022-11-03T06:02:03.267Z,11.18
2022-11-03T06:03:03.223Z,11.18
2022-11-03T06:04:03.167Z,11.17
2022-11-03T06:05:04.010Z,11.15
2022-11-03T06:06:03.185Z,11.14
2022-11-03T06:07:03.140Z,11.14
2022-11-03T06:08:04.640Z,11.11
2022-11-03T06:09:03.161Z,11.14
2022-11-03T06:10:03.124Z,11.17
2022-11-03T06:11:03.092Z,11.18
2022-11-03T06:12:03.100Z,11.21
2022-11-03T06:13:03.096Z,11.22
2022-11-03T06:14:03.092Z,11.22
2022-11-03T06:15:03.080Z,11.25
2022-11-03T06:16:03.060Z,11.25
2022-11-03T06:17:03.042Z,11.28
2022-11-03T06:18:03.022Z,11.25
2022-11-03T06:19:03.876Z,11.25
2022-11-03T06:20:03.051Z,11.21
2022-11-03T06:21:03.010Z,11.22
2022-11-03T06:22:03.982Z,11.24
2022-11-03T06:23:03.054Z,11.25
2022-11-03T06:24:03.792Z,11.27
2022-11-03T06:25:02.995Z,11.25
2022-11-03T06:26:02.923Z,11.24
2022-11-03T06:27:04.011Z,11.25
2022-11-03T06:28:02.945Z,11.27
2022-11-03T06:29:02.931Z,11.27
2022-11-03T06:30:02.881Z,11.25
2022-11-03T06:31:02.868Z,11.24
2022-11-03T06:32:02.867Z,11.25
2022-11-03T06:33:02.972Z,11.27
2022-11-03T06:34:02.841Z,11.29
2022-11-03T06:35:02.861Z,11.32
2022-11-03T06:36:02.862Z,11.33
2022-11-03T06:37:02.838Z,11.35
2022-11-03T06:38:02.799Z,11.36
2022-11-03T06:39:02.804Z,11.37
2022-11-03T06:40:02.775Z,11.36
2022-11-03T06:41:02.808Z,11.36
2022-11-03T06:42:02.773Z,11.36
2022-11-03T06:43:02.770Z,11.36
2022-11-03T06:44:02.734Z,11.37
2022-11-03T06:45:02.744Z,11.36
2022-11-03T06:46:02.753Z,11.37
2022-11-03T06:47:02.700Z,11.37
2022-11-03T06:48:02.705Z,11.39
2022-11-03T06:49:03.432Z,11.39
2022-11-03T06:50:02.689Z,11.39
2022-11-03T06:51:02.663Z,11.39
2022-11-03T06:52:03.711Z,11.42
2022-11-03T06:53:02.629Z,11.46
2022-11-03T06:54:02.658Z,11.51
2022-11-03T06:55:03.173Z,11.54
2022-11-03T06:56:03.260Z,11.55
2022-11-03T06:57:02.626Z,11.58
2022-11-03T06:58:02.588Z,11.60
2022-11-03T06:59:02.825Z,11.62
2022-11-03T07:00:20.376Z,11.64
2022-11-03T07:01:04.211Z,11.69
2022-11-03T07:02:02.649Z,11.70
2022-11-03T07:03:02.549Z,11.70
2022-11-03T07:04:02.523Z,11.73
2022-11-03T07:05:02.513Z,11.76
2022-11-03T07:06:02.495Z,11.79
2022-11-03T07:07:02.470Z,11.80
2022-11-03T07:08:02.580Z,11.80
2022-11-03T07:09:03.935Z,11.82
2022-11-03T07:10:02.454Z,11.83
2022-11-03T07:11:02.493Z,11.86
2022-11-03T07:12:02.437Z,11.85
2022-11-03T07:13:06.915Z,11.88
2022-11-03T07:14:02.490Z,11.90
2022-11-03T07:16:02.410Z,11.94
2022-11-03T07:17:02.425Z,11.98
2022-11-03T07:18:02.510Z,12.01
2022-11-03T07:19:02.425Z,12.01
2022-11-03T07:20:02.360Z,12.04
2022-11-03T07:21:02.337Z,12.07
2022-11-03T07:22:02.329Z,12.09
2022-11-03T07:23:02.379Z,12.10
2022-11-03T07:24:02.330Z,12.13
2022-11-03T07:25:02.311Z,12.16
2022-11-03T07:26:03.123Z,12.20
2022-11-03T07:27:02.254Z,12.21
2022-11-03T07:28:02.251Z,12.23
2022-11-03T07:29:02.262Z,12.24
2022-11-03T07:30:02.315Z,12.28
2022-11-03T07:31:02.227Z,12.31
2022-11-03T07:32:02.232Z,12.32
2022-11-03T07:33:02.298Z,12.32
2022-11-03T07:34:02.597Z,12.35
2022-11-03T07:35:02.192Z,12.35
2022-11-03T07:36:15.604Z,12.37
2022-11-03T07:37:03.168Z,12.38
2022-11-03T07:38:02.135Z,12.39
2022-11-03T07:39:02.158Z,12.42
2022-11-03T07:40:02.167Z,12.45
2022-11-03T07:41:02.134Z,12.45
2022-11-03T07:42:02.086Z,12.46
2022-11-03T07:43:02.139Z,12.47
2022-11-03T07:44:02.131Z,12.47
2022-11-03T07:45:02.090Z,12.49
2022-11-03T07:46:03.095Z,12.49
2022-11-03T07:47:02.046Z,12.52
2022-11-03T07:48:04.496Z,12.53
2022-11-03T07:49:02.035Z,12.52
2022-11-03T07:50:02.004Z,12.50
2022-11-03T07:51:03.460Z,12.52
2022-11-03T07:52:01.993Z,12.52
2022-11-03T07:53:02.086Z,12.53
2022-11-03T07:54:01.988Z,12.54
2022-11-03T07:55:01.966Z,12.57
2022-11-03T07:56:02.013Z,12.59
2022-11-03T07:57:01.951Z,12.60
2022-11-03T07:58:01.921Z,12.62
2022-11-03T07:59:01.924Z,12.65
2022-11-03T08:00:05.305Z,12.67
2022-11-03T08:01:03.282Z,12.68
2022-11-03T08:02:01.964Z,12.67
2022-11-03T08:03:02.987Z,12.70
2022-11-03T08:04:02.898Z,12.72
2022-11-03T08:06:14.578Z,12.75
2022-11-03T08:07:12.099Z,12.77
2022-11-03T08:08:11.929Z,12.75
2022-11-03T08:09:12.102Z,12.77
2022-11-03T08:10:11.943Z,12.78
2022-11-03T08:11:11.873Z,12.82
2022-11-03T08:12:11.878Z,12.83
2022-11-03T08:13:11.914Z,12.85
2022-11-03T08:14:11.885Z,12.86
2022-11-03T08:15:12.098Z,12.90
2022-11-03T08:16:11.844Z,12.93
2022-11-03T08:17:11.819Z,12.97
2022-11-03T08:18:11.948Z,12.97
2022-11-03T08:19:11.798Z,13.03
2022-11-03T08:20:11.800Z,13.05
2022-11-03T08:21:11.793Z,13.05
2022-11-03T08:22:11.765Z,13.05
2022-11-03T08:23:25.183Z,13.04
2022-11-03T08:24:12.765Z,13.05
2022-11-03T08:25:11.724Z,13.05
2022-11-03T08:26:11.731Z,13.05
2022-11-03T08:27:11.725Z,13.08
2022-11-03T08:28:11.711Z,13.07
2022-11-03T08:29:11.692Z,13.08
2022-11-03T08:30:11.683Z,13.12
2022-11-03T08:31:13.165Z,13.17
2022-11-03T08:32:11.671Z,13.17
2022-11-03T08:33:11.651Z,13.20
2022-11-03T08:34:11.639Z,13.20
2022-11-03T08:35:11.630Z,13.25
2022-11-03T08:36:11.618Z,13.29
2022-11-03T08:37:11.600Z,13.30
2022-11-03T08:38:11.592Z,13.36
2022-11-03T08:39:11.593Z,13.36
2022-11-03T08:40:11.580Z,13.36
2022-11-03T08:41:11.571Z,13.38
2022-11-03T08:42:11.565Z,13.41
2022-11-03T08:43:11.594Z,13.45
2022-11-03T08:44:11.557Z,13.51
2022-11-03T08:45:11.516Z,13.59
2022-11-03T08:46:17.726Z,13.66
2022-11-03T08:47:12.510Z,13.71
2022-11-03T08:48:11.528Z,13.77
2022-11-03T08:49:11.465Z,13.85
2022-11-03T08:50:11.970Z,13.85
2022-11-03T08:51:11.467Z,13.88
2022-11-03T08:52:11.452Z,13.89
2022-11-03T08:53:11.445Z,13.89
2022-11-03T08:54:11.436Z,13.89
2022-11-03T08:55:11.431Z,13.85
2022-11-03T08:56:13.077Z,13.89
2022-11-03T08:57:11.394Z,13.92
2022-11-03T08:58:11.445Z,13.99
2022-11-03T08:59:11.385Z,14.10
2022-11-03T09:00:11.467Z,14.27
2022-11-03T09:01:11.432Z,14.33
2022-11-03T09:02:11.424Z,14.35
2022-11-03T09:03:11.369Z,14.27
2022-11-03T09:04:11.731Z,14.22
2022-11-03T09:05:11.300Z,14.20
2022-11-03T09:06:11.307Z,14.24
2022-11-03T09:07:11.283Z,14.22
2022-11-03T09:10:21.244Z,14.14
2022-11-03T09:11:12.248Z,14.09
2022-11-03T09:12:11.239Z,14.09
2022-11-03T09:13:11.217Z,14.07
2022-11-03T09:14:11.227Z,14.06
2022-11-03T09:15:11.198Z,13.99
2022-11-03T09:16:11.795Z,13.97
2022-11-03T09:17:11.176Z,13.96
2022-11-03T09:18:11.276Z,13.96
2022-11-03T09:19:11.161Z,13.89
2022-11-03T09:20:11.155Z,13.89
2022-11-03T09:21:11.134Z,13.88
2022-11-03T09:22:11.120Z,13.85
2022-11-03T09:23:11.109Z,13.82
2022-11-03T09:24:11.109Z,13.87
2022-11-03T09:25:11.089Z,13.88
2022-11-03T09:26:11.091Z,13.88
2022-11-03T09:27:11.075Z,13.88
2022-11-03T09:28:11.653Z,13.91
2022-11-03T09:29:11.203Z,13.95
2022-11-03T09:30:13.928Z,13.97
2022-11-03T09:31:11.011Z,13.99
2022-11-03T09:32:11.016Z,13.99
2022-11-03T09:33:11.029Z,14.02
2022-11-03T09:34:11.004Z,14.04
2022-11-03T09:35:10.984Z,14.06
2022-11-03T09:36:10.996Z,14.14
2022-11-03T09:37:10.988Z,14.21
2022-11-03T09:38:10.962Z,14.27
2022-11-03T09:39:10.976Z,14.33
2022-11-03T09:40:11.017Z,14.37
2022-11-03T09:41:24.855Z,14.40
2022-11-03T09:42:11.917Z,14.42
2022-11-03T09:43:11.174Z,14.46
2022-11-03T09:44:10.880Z,14.47
2022-11-03T09:45:10.877Z,14.47
2022-11-03T09:46:10.864Z,14.50
2022-11-03T09:47:10.859Z,14.47
2022-11-03T09:48:10.957Z,14.47
2022-11-03T09:49:10.835Z,14.57
2022-11-03T09:50:10.833Z,14.54
2022-11-03T09:51:10.798Z,14.54
2022-11-03T09:52:10.799Z,14.57
2022-11-03T09:53:10.784Z,14.60
2022-11-03T09:54:10.772Z,14.62
2022-11-03T09:55:10.762Z,14.62
2022-11-03T09:56:10.752Z,14.65
2022-11-03T09:57:10.962Z,14.61
2022-11-03T09:58:10.734Z,14.68
2022-11-03T09:59:10.722Z,14.69
2022-11-03T10:00:10.738Z,14.75
2022-11-03T10:01:10.780Z,14.77
2022-11-03T10:02:10.779Z,14.78
2022-11-03T10:03:10.849Z,14.78
2022-11-03T10:04:11.324Z,14.77
2022-11-03T10:05:11.289Z,14.77
2022-11-03T10:06:12.921Z,14.78
2022-11-03T10:07:10.641Z,14.84
2022-11-03T10:08:10.644Z,14.83
2022-11-03T10:09:10.613Z,14.84
2022-11-03T10:10:10.607Z,14.86
2022-11-03T10:11:10.853Z,14.86
2022-11-03T10:12:10.601Z,14.89
2022-11-03T10:13:10.581Z,14.92
2022-11-03T10:14:10.568Z,14.89
2022-11-03T10:15:10.554Z,14.88
2022-11-03T10:16:10.544Z,14.86
2022-11-03T10:17:10.511Z,14.84
2022-11-03T10:18:10.617Z,14.81
2022-11-03T10:19:10.514Z,14.86
2022-11-03T10:20:10.499Z,14.88
2022-11-03T10:21:10.726Z,14.91
2022-11-03T10:22:10.483Z,14.92
2022-11-03T10:23:10.462Z,14.95
2022-11-03T10:24:10.498Z,14.95
2022-11-03T10:25:10.450Z,14.96
2022-11-03T10:26:10.442Z,14.96
2022-11-03T10:27:10.538Z,15.02
2022-11-03T10:28:14.365Z,15.07
2022-11-03T10:29:10.466Z,15.09
2022-11-03T10:30:10.391Z,15.07
2022-11-03T10:31:12.212Z,15.09
2022-11-03T10:32:10.473Z,15.14
2022-11-03T10:33:10.570Z,15.19
2022-11-03T10:34:10.340Z,15.14
2022-11-03T10:35:10.360Z,15.13
2022-11-03T10:36:10.322Z,15.10
2022-11-03T10:37:10.324Z,15.03
2022-11-03T10:38:10.310Z,15.07
2022-11-03T10:39:10.305Z,15.09
2022-11-03T10:40:22.356Z,15.09
2022-11-03T10:41:11.301Z,15.07
2022-11-03T10:42:10.270Z,15.02
2022-11-03T10:43:10.266Z,15.06
2022-11-03T10:44:10.262Z,15.09
2022-11-03T10:45:10.267Z,15.07
2022-11-03T10:46:29.598Z,15.10
2022-11-03T10:47:11.217Z,15.13
2022-11-03T10:48:10.402Z,15.21
2022-11-03T10:49:10.193Z,15.20
2022-11-03T10:50:10.178Z,15.23
2022-11-03T10:51:10.175Z,15.23
2022-11-03T10:52:10.159Z,15.19
2022-11-03T10:53:10.468Z,15.09
2022-11-03T10:54:10.138Z,15.06
2022-11-03T10:55:10.148Z,15.06
2022-11-03T10:56:10.548Z,15.06
2022-11-03T10:57:10.115Z,15.01
2022-11-03T10:58:10.358Z,14.99
2022-11-03T10:59:10.099Z,14.94
2022-11-03T11:00:10.126Z,14.96
2022-11-03T11:01:10.156Z,14.96
2022-11-03T11:02:10.181Z,14.96
2022-11-03T11:03:13.721Z,14.98
2022-11-03T11:04:11.101Z,14.95
2022-11-03T11:05:10.004Z,14.95
2022-11-03T11:06:10.607Z,14.96
2022-11-03T11:07:10.024Z,15.01
2022-11-03T11:08:10.131Z,14.99
2022-11-03T11:09:09.996Z,14.99
2022-11-03T11:10:09.965Z,14.95
2022-11-03T11:11:09.965Z,14.95
2022-11-03T11:12:09.963Z,14.94
2022-11-03T11:13:10.264Z,14.95
2022-11-03T11:14:09.940Z,14.94
2022-11-03T11:15:09.920Z,14.89
2022-11-03T11:16:09.938Z,14.94
2022-11-03T11:17:09.894Z,14.96
2022-11-03T11:18:10.000Z,14.98
2022-11-03T11:19:09.885Z,15.03
2022-11-03T11:20:09.885Z,15.03
2022-11-03T11:21:09.857Z,15.02
2022-11-03T11:22:09.848Z,14.98
2022-11-03T11:23:10.389Z,14.98
2022-11-03T11:24:09.831Z,15.01
2022-11-03T11:25:09.812Z,15.06
2022-11-03T11:26:09.839Z,15.07
2022-11-03T11:27:09.798Z,15.06
2022-11-03T11:28:09.780Z,15.02
2022-11-03T11:29:09.788Z,15.06
2022-11-03T11:30:09.763Z,15.07
2022-11-03T11:31:09.775Z,15.13
2022-11-03T11:32:09.741Z,15.09
2022-11-03T11:33:09.963Z,15.03
2022-11-03T11:34:09.732Z,15.06
2022-11-03T11:35:09.734Z,15.03
2022-11-03T11:36:09.755Z,15.03
2022-11-03T11:37:10.053Z,15.01
2022-11-03T11:38:09.676Z,14.98
2022-11-03T11:39:09.668Z,14.96
2022-11-03T11:40:09.653Z,14.95
2022-11-03T11:41:09.640Z,14.92
2022-11-03T11:42:09.704Z,14.91
2022-11-03T11:43:10.017Z,14.91
2022-11-03T11:44:09.613Z,14.91
2022-11-03T11:45:09.604Z,14.89
2022-11-03T11:46:09.642Z,14.89
2022-11-03T11:47:09.893Z,14.91
2022-11-03T11:48:12.571Z,14.88
2022-11-03T11:49:10.832Z,14.89
2022-11-03T11:50:09.922Z,14.91
2022-11-03T11:51:09.535Z,14.92
2022-11-03T11:52:15.228Z,14.91
2022-11-03T11:53:10.818Z,14.91
2022-11-03T11:54:18.197Z,14.89
2022-11-03T11:55:10.659Z,14.88
2022-11-03T11:56:09.477Z,14.83
2022-11-03T11:57:09.467Z,14.83
2022-11-03T11:58:09.883Z,14.81
2022-11-03T11:59:09.460Z,14.81
2022-11-03T12:00:09.531Z,14.81
2022-11-03T12:01:09.421Z,14.80
2022-11-03T12:02:09.403Z,14.78
2022-11-03T12:03:09.835Z,14.80
2022-11-03T12:04:09.528Z,14.78
2022-11-03T12:05:09.397Z,14.78
2022-11-03T12:06:09.361Z,14.77
2022-11-03T12:07:09.683Z,14.73
2022-11-03T12:08:09.667Z,14.75
2022-11-03T12:09:09.339Z,14.77
2022-11-03T12:10:09.332Z,14.77
2022-11-03T12:11:09.354Z,14.77
2022-11-03T12:12:09.454Z,14.73
2022-11-03T12:13:09.683Z,14.75
2022-11-03T12:14:09.291Z,14.75
2022-11-03T12:15:09.286Z,14.78
2022-11-03T12:16:09.262Z,14.80
2022-11-03T12:17:09.259Z,14.78
2022-11-03T12:18:09.515Z,14.78
2022-11-03T12:19:09.244Z,14.81
2022-11-03T12:20:09.233Z,14.80
2022-11-03T12:21:09.223Z,14.81
2022-11-03T12:22:09.325Z,14.80
2022-11-03T12:23:09.871Z,14.78
2022-11-03T12:24:09.182Z,14.81
2022-11-03T12:25:09.163Z,14.81
2022-11-03T12:26:09.164Z,14.81
2022-11-03T12:27:09.549Z,14.83
2022-11-03T12:28:09.486Z,14.83
2022-11-03T12:29:09.126Z,14.86
2022-11-03T12:30:09.113Z,14.88
2022-11-03T12:31:09.106Z,14.86
2022-11-03T12:32:25.581Z,14.88
2022-11-03T12:33:10.234Z,14.88
2022-11-03T12:34:09.078Z,14.84
2022-11-03T12:35:09.070Z,14.84
2022-11-03T12:36:09.051Z,14.86
2022-11-03T12:37:09.032Z,14.84
2022-11-03T12:38:09.049Z,14.88
2022-11-03T12:39:09.149Z,14.88
2022-11-03T12:40:09.009Z,14.86
2022-11-03T12:41:09.006Z,14.88
2022-11-03T12:42:09.312Z,14.89
2022-11-03T12:43:09.429Z,14.91
2022-11-03T12:44:09.031Z,14.94
2022-11-03T12:45:08.946Z,14.94
2022-11-03T12:46:08.941Z,14.94
2022-11-03T12:47:08.933Z,14.94
2022-11-03T12:48:08.908Z,14.95
2022-11-03T12:49:08.904Z,14.94
2022-11-03T12:50:08.921Z,14.95
2022-11-03T12:51:08.896Z,14.96
2022-11-03T12:52:08.931Z,14.98
2022-11-03T12:53:09.216Z,15.02
2022-11-03T12:54:08.874Z,15.01
2022-11-03T12:55:09.058Z,15.01
2022-11-03T12:56:08.843Z,15.06
2022-11-03T12:57:09.038Z,15.07
2022-11-03T12:58:09.161Z,15.11
2022-11-03T12:59:08.809Z,15.13
2022-11-03T13:00:08.822Z,15.11